Terminal Aerodrome Forecast
Issued by NWS

Home | Current Version | Previous Version | Text Only | Print | Product List | Glossary Off
Versions: 1 2 3 4 5 6 7 8 9 10 11 12 13 14 15 16 17 18 19 20 21 22 23 24 25

845
FTUS43 KBIS 181512 AAA
TAFDIK
TAF AMD
KDIK 181512Z 1815/1912 00000KT 5SM BR OVC003
     FM181700 30006KT P6SM OVC007
     FM181900 32006KT P6SM BKN015
     FM182100 35008KT P6SM BKN050
     FM190200 05006KT P6SM SCT150=

USA.gov is the U.S. government's official web portal to all federal, state and local government web resources and services.